Station: Wadeye (Port Keats)

  Atmospheric Gas Attenuation - ITU Rec 676-11   --------------- db/100km ---------------
Date Time Temp RH % AH g/m3 Dew Point Wind Direction Speed kph Gust kph Barometer mB Rainfall Since 9am 24GHz 47GHz 76GHz 122GHz 134GHz 241GHz
07 06:40 19.4 91 15.18 17.9 9 11 1012.3 0 33.3 35.3 64.5 170.3 181.5 629.2
07 06:30 19.2 91 15 17.7 9 15 1012 0 33.0 35.1 63.8 168.5 179.2 621.2
07 06:20 18.5 90 14.24 16.8 7 7 1012.1 0 31.4 34.0 60.9 160.8 169.4 587.2
07 06:10 18.4 90 14.15 16.7 0 0 1011.9 0 31.2 33.8 60.6 159.9 168.3 583.2
07 06:00 18 89 13.67 16.2 0 0 1011.6 0 30.2 33.1 58.7 154.9 162.0 561.3
07 05:50 18.2 89 13.83 16.4 0 0 1011.7 0 30.5 33.3 59.3 156.4 164.0 568.1
07 05:40 17.8 88 13.36 15.8 0 0 1011.6 0 29.6 32.6 57.4 151.6 157.9 546.9
07 05:30 18 88 13.52 16 2 6 1011.3 0 29.9 32.8 58.0 153.1 159.8 553.5
07 05:20 18.4 89 14 16.6 0 0 1011.4 0 30.9 33.5 59.9 158.0 166.0 575.3
07 05:10 18.1 88 13.6 16.1 0 0 1011.4 0 30.0 32.9 58.3 153.8 160.8 556.9
07 04:50 18 88 13.52 16 6 6 1011.3 0 29.9 32.8 58.0 153.1 159.8 553.5
07 04:40 18.3 89 13.91 16.5 7 7 1011.2 0 30.7 33.4 59.5 157.1 164.9 571.3
07 04:30 18.4 88 13.84 16.4 0 6 1011 0 30.5 33.2 59.1 156.0 163.6 566.9
07 04:20 18.1 87 13.44 15.9 4 6 1011.1 0 29.7 32.6 57.6 151.9 158.4 548.7
07 04:10 18.1 87 13.44 15.9 0 0 1011.1 0 29.7 32.6 57.6 151.9 158.4 548.7
07 04:00 18.5 88 13.92 16.5 4 7 1010.8 0 30.7 33.3 59.4 156.8 164.5 570.1
07 03:50 18.4 87 13.68 16.2 6 6 1011 0 30.2 32.9 58.4 154.1 161.3 558.7
07 03:40 18.3 87 13.6 16.1 6 7 1011 0 30.0 32.8 58.1 153.4 160.3 555.3
07 03:30 18.6 88 14 16.6 0 0 1010.8 0 30.9 33.4 59.7 157.5 165.5 573.5
07 03:20 18.5 87 13.76 16.3 0 0 1011 0 30.4 33.1 58.7 154.9 162.2 562.0
07 03:10 18.6 87 13.85 16.4 0 0 1011 0 30.5 33.2 59.0 155.7 163.3 565.9
07 03:00 18.7 87 13.93 16.5 0 0 1010.8 0 30.7 33.3 59.3 156.5 164.3 569.2
07 02:50 18.7 86 13.77 16.3 0 0 1011 0 30.4 33.0 58.6 154.6 161.9 561.1
07 02:40 19.1 88 14.42 17.1 0 0 1011.1 0 31.7 34.0 61.2 161.6 170.6 591.4
07 02:30 19.1 88 14.42 17.1 0 2 1011 0 31.7 34.0 61.2 161.5 170.6 591.4
07 02:20 18.9 87 14.09 16.7 0 0 1011.2 0 31.0 33.5 59.9 158.0 166.2 576.0
07 02:10 18.7 87 13.93 16.5 6 7 1011.2 0 30.7 33.3 59.3 156.5 164.3 569.3
07 02:00 18.8 86 13.85 16.4 4 9 1011.2 0 30.5 33.1 58.9 155.4 162.9 564.5
07 01:50 19.2 87 14.34 17 0 0 1011.4 0 31.5 33.8 60.8 160.4 169.3 586.7
07 01:40 19.2 87 14.34 17 2 6 1011.4 0 31.5 33.8 60.8 160.4 169.3 586.7
07 01:30 19.1 86 14.1 16.7 2 7 1011.3 0 31.0 33.4 59.8 157.7 165.9 575.1
07 01:20 19.3 85 14.1 16.7 0 0 1011.6 0 31.0 33.4 59.6 157.4 165.5 573.7
07 01:10 19.3 85 14.1 16.7 0 0 1011.7 0 31.0 33.4 59.6 157.4 165.5 573.7
07 01:00 19.4 85 14.18 16.8 0 0 1011.4 0 31.2 33.5 59.9 158.1 166.5 576.9
07 00:50 19.5 83 13.93 16.5 0 0 1011.7 0 30.6 33.0 58.7 155.0 162.6 563.6
07 00:40 19.7 82 13.92 16.5 4 6 1011.8 0 30.6 32.9 58.5 154.5 162.1 561.7
07 00:30 20.3 85 14.95 17.7 7 11 1011.6 0 32.8 34.5 62.6 165.4 175.8 609.6
07 00:20 20 85 14.69 17.4 0 0 1011.8 0 32.2 34.2 61.7 163.0 172.7 598.6
07 00:10 19.9 85 14.6 17.3 0 0 1011.8 0 32.0 34.1 61.4 162.1 171.6 594.8
07 00:00 20 84 14.52 17.2 2 7 1011.7 0 31.9 33.9 61.0 160.9 170.1 589.9
06 23:50 19.7 83 14.09 16.7 7 7 1012 0 31.0 33.2 59.3 156.5 164.6 570.4
06 23:40 19.9 83 14.26 16.9 6 6 1011.9 0 31.3 33.4 59.9 158.1 166.6 577.5
06 23:30 20 84 14.52 17.2 4 11 1011.7 0 31.9 33.9 61.0 160.9 170.1 589.9
06 23:20 20.1 82 14.25 16.9 11 11 1012 0 31.3 33.4 59.7 157.6 166.0 575.5
06 23:10 21.1 84 15.48 18.3 0 0 1011.8 0 33.8 35.2 64.4 170.1 181.8 630.5
06 23:00 20.8 83 15.03 17.8 0 0 1011.5 0 32.9 34.5 62.6 165.3 175.8 609.6
06 22:50 21.1 82 15.11 17.9 0 0 1011.6 0 33.0 34.5 62.7 165.6 176.3 611.4
06 22:40 21.1 81 14.92 17.7 0 0 1011.5 0 32.6 34.1 61.9 163.4 173.5 601.6
06 22:30 20.8 81 14.67 17.4 0 0 1011.2 0 32.1 33.8 61.0 161.0 170.5 591.1
06 22:20 21 81 14.84 17.6 0 0 1011.3 0 32.5 34.0 61.6 162.6 172.5 598.3
06 22:10 21.1 81 14.92 17.7 0 0 1011.3 0 32.6 34.1 61.8 163.3 173.5 601.5
06 22:00 21.2 81 15.01 17.8 0 0 1011.1 0 32.8 34.2 62.2 164.2 174.5 605.3
06 21:50 21.4 80 15 17.8 0 0 1011.3 0 32.8 34.2 62.0 163.6 173.9 603.3
06 21:40 21.6 80 15.17 18 0 0 1011.2 0 33.1 34.4 62.5 165.2 175.9 610.3
06 21:30 21.8 78 14.96 17.8 0 0 1011 0 32.7 33.9 61.4 162.3 172.4 598.0
06 21:20 22.6 76 15.27 18.2 0 0 1011.1 0 33.3 34.1 62.2 164.2 175.1 607.3
06 21:10 22.8 77 15.65 18.6 0 0 1011 0 34.1 34.7 63.7 168.3 180.1 624.9
06 21:00 22.9 76 15.53 18.4 6 7 1010.8 0 33.8 34.5 63.1 166.6 178.1 617.9
06 20:50 23.2 76 15.8 18.7 6 6 1010.9 0 34.3 34.8 64.0 169.2 181.3 629.2
06 20:40 23.3 76 15.89 18.8 7 7 1010.9 0 34.5 35.0 64.3 170.0 182.4 632.9
06 20:30 23.4 75 15.77 18.7 7 9 1010.6 0 34.3 34.7 63.7 168.3 180.4 625.9
06 20:20 23.5 75 15.86 18.8 7 7 1010.7 0 34.4 34.8 64.0 169.2 181.4 629.7
06 20:10 23.6 74 15.74 18.7 9 9 1010.7 0 34.2 34.6 63.4 167.6 179.5 622.8
06 20:00 23.8 73 15.7 18.7 9 11 1010.5 0 34.1 34.4 63.1 166.6 178.4 619.1
06 19:50 23.9 72 15.58 18.5 7 9 1010.6 0 33.8 34.2 62.5 165.0 176.4 612.3
06 19:40 24 71 15.45 18.4 7 9 1010.6 0 33.5 33.9 61.8 163.3 174.4 605.1
06 19:30 24.4 69 15.36 18.3 11 13 1010.3 0 33.3 33.6 61.1 161.4 172.1 597.4
06 19:20 24.6 67 15.08 18.1 11 11 1010.6 0 32.7 33.0 59.7 157.8 167.8 582.3
06 19:10 24.9 65 14.88 17.9 9 11 1010.6 0 32.3 32.6 58.7 154.9 164.4 570.4
06 19:00 25 63 14.5 17.5 11 13 1010.3 0 31.4 31.9 57.0 150.5 158.9 551.3
06 18:50 25.2 60 13.97 16.9 11 13 1010.5 0 30.3 30.9 54.7 144.3 151.3 525.0
06 18:40 25.6 56 13.33 16.4 11 13 1010.4 0 28.9 29.7 51.8 136.7 142.1 492.8
06 18:30 26 55 13.39 16.5 9 15 1010.1 0 29.0 29.7 51.8 136.6 142.1 492.9
06 18:20 26.3 54 13.37 16.3 11 13 1010.2 0 29.0 29.6 51.5 135.8 141.3 490.1
06 18:10 26.8 52 13.24 16.1 11 13 1010.2 0 28.7 29.2 50.7 133.6 138.7 481.2
06 18:00 27 50 12.87 15.7 15 19 1009.9 0 27.9 28.5 49.1 129.4 133.6 463.4
06 17:50 27.2 50 13.01 15.9 15 17 1010.1 0 28.2 28.7 49.5 130.6 135.1 468.5
06 17:40 27.7 49 13.11 16.3 13 15 1010 0 28.3 28.7 49.6 130.8 135.5 469.9
06 17:30 28 48 13.05 16 15 20 1009.7 0 28.2 28.5 49.1 129.6 134.2 465.4
06 17:20 28.4 44 12.23 15 15 15 1009.8 0 26.4 27.1 45.8 120.8 123.4 427.8
06 17:10 28.6 44 12.37 15.2 11 15 1009.8 0 26.7 27.3 46.2 121.9 124.8 432.7
06 17:00 28.5 44 12.3 15.1 13 20 1009.5 0 26.6 27.2 46.0 121.3 124.1 430.2
06 16:50 28.4 44 12.23 15 11 15 1009.6 0 26.5 27.1 45.8 120.8 123.4 427.7
06 16:40 28.2 44 12.1 14.8 17 20 1009.5 0 26.2 27.0 45.4 119.8 122.1 423.2
06 16:30 29.3 44 12.85 15.8 13 20 1009.3 0 27.7 27.7 47.6 125.5 129.5 449.2
06 16:20 28.6 45 12.65 15.5 15 19 1009.5 0 27.3 27.7 47.3 124.6 128.2 444.6
06 16:10 28.8 43 12.22 15.3 15 17 1009.5 0 26.4 27.0 45.5 120.1 122.6 425.2
06 16:00 29.7 43 12.83 15.8 17 26 1009.1 0 27.6 27.6 47.3 124.7 128.6 446.0
06 15:50 29.8 43 12.9 15.9 11 13 1009.3 0 27.8 27.7 47.5 125.2 129.3 448.5
06 15:40 30.1 40 12.2 15 15 20 1009.4 0 26.3 26.5 44.7 117.9 120.4 417.5
06 15:30 29.5 40 11.81 14.5 13 20 1009.3 0 25.5 26.1 43.7 115.0 116.7 404.3
06 15:20 29.4 41 12.04 15.1 15 17 1009.5 0 26.0 26.5 44.6 117.4 119.6 414.5
06 15:10 28.7 45 12.72 15.6 15 19 1009.6 0 27.5 27.7 47.5 125.2 128.9 447.1
06 15:00 28.8 47 13.36 16.4 17 24 1009.5 0 28.8 28.7 49.8 131.5 136.7 474.2
06 14:50 28.9 45 12.86 15.8 15 17 1009.7 0 27.7 27.9 47.9 126.3 130.3 452.0
06 14:40 28.8 43 12.22 15.3 20 24 1009.8 0 26.4 27.0 45.6 120.1 122.7 425.3
06 14:30 29.6 43 12.76 15.7 17 26 1009.7 0 27.5 27.5 47.1 124.2 127.9 443.8
06 14:20 28.8 45 12.79 16 20 24 1009.9 0 27.6 27.8 47.7 125.8 129.6 449.6
06 14:10 29.6 45 13.36 16.4 19 20 1010.2 0 28.7 28.5 49.4 130.2 135.4 469.7
06 14:00 29.3 44 12.85 15.8 15 24 1010.2 0 27.7 27.8 47.6 125.6 129.6 449.5

Last Refresh: 07-Aug-2020 06:52:33

Most of the information presented on this site is sourced from the Bureau of Meteorology.  Copyright in all material sourced from the Bureau of Meteorology resides with the Commonwealth of Australia.